Terminal Aerodrome Forecast
Issued by NWS Twin Cities, MN

Home | Current Version | Previous Version | Graphics & Text | Print | Product List | Glossary On
Versions: 1 2 3 4 5 6 7 8 9 10 11 12 13 14
000
FTUS43 KMPX 142300
TAFEAU
TAF
KEAU 142335Z 1500/1524 16006KT 1SM BR OVC002
     FM150200 17005KT 1/4SM -DZ FG VV002
     FM151600 12005KT 3/4SM -RA BR OVC003=

USA.gov is the U.S. government's official web portal to all federal, state and local government web resources and services.